Observations for BENSON RAF, United Kingdom (EGUB)

EGUB 112250Z 11008KT 9999 FEW030 BKN140 BKN180 05/04 Q1021 BLU BECMG 7000 HZ WHT
EGUB 112150Z 11010KT 9999 FEW030 BKN180 06/04 Q1021 BLU BECMG 7000 HZ WHT   
EGUB 112050Z 11010KT 9999 SCT034 SCT140 BKN180 06/05 Q1022 BLU TEMPO SCT018 WHT 
EGUB 111950Z 12009KT 9999 FEW030 SCT140 BKN170 06/04 Q1022 BLU TEMPO SCT020 WHT 
EGUB 111850Z 11011KT 9999 FEW030 BKN140 06/04 Q1022 BLU TEMPO SCT017 WHT
EGUB 111750Z 12007KT 9999 BKN032 07/05 Q1022 BLU NOSIG  
EGUB 111650Z 13009KT 9999 SCT035 BKN160 06/04 Q1022 BLU NOSIG   
EGUB 111550Z 10006KT 9999 FEW025 SCT035 BKN160 06/04 Q1022 BLU NOSIG
EGUB 111450Z 12008KT 9999 SCT030 07/04 Q1022 BLU NOSIG  
EGUB 111350Z 17006KT 9999 FEW030 09/05 Q1023 BLU NOSIG  
EGUB 111250Z 17005KT CAVOK 09/05 Q1024 BLU NOSIG
EGUB 111150Z 19006KT CAVOK 08/05 Q1024 BLU NOSIG
EGUB 111050Z 17001KT CAVOK 07/05 Q1025 BLU NOSIG
EGUB 110950Z 00000KT 9999 FEW030 03/03 Q1025 BLU NOSIG  
EGUB 110850Z 19002KT 9999 MIFG FEW030 01/00 Q1025 BLU NOSIG 
EGUB 110750Z 00000KT 9999 MIFG FEW017 M02/M02 Q1025 BLU NOSIG   
EGUB 110650Z 00000KT 9999 FEW017 M00/M01 Q1025 BLU TEMPO SCT017 WHT 
EGUB 110550Z AUTO 09002KT 9999 // FEW032/// M01/M01 Q1025   
EGUB 110450Z AUTO 00000KT 9999 // FEW020/// SCT027/// M01/M01 Q1026 
EGUB 110350Z AUTO 12002KT 9999 // NCD M01/M02 Q1026 
EGUB 110250Z AUTO 00000KT 9999 // NCD M00/M00 Q1026 
EGUB 110150Z AUTO 11004KT 9999 // NCD 00/M00 Q1026  
EGUB 110050Z AUTO 11001KT 9999 // NCD 01/00 Q1027   
EGUB 102350Z AUTO 13001KT 9999 // BKN050/// 02/01 Q1027 
EGUB 102250Z AUTO 23002KT 9999 // BKN060/// 02/02 Q1027